Time,TemperatureF,DewpointF,PressureIn,WindDirection,WindDirectionDegrees,WindSpeedMPH,WindSpeedGustMPH,Humidity,HourlyPrecipIn,Conditions,Clouds,dailyrainin,SoftwareType,DateUTC
2013-04-04 00:00:00,56.1,51.3,30.06,NNE,30,2.0,9.0,84,0.00,,---,0.00,VWS V14.00,2013-04-04 05:00:00,
2013-04-04 00:05:00,56.0,51.2,30.06,NNE,17,0.0,6.0,84,0.00,,---,0.00,VWS V14.00,2013-04-04 05:05:00,
2013-04-04 00:10:00,56.0,51.2,30.06,NNE,24,14.0,16.0,84,0.00,,---,0.00,VWS V14.00,2013-04-04 05:10:00,
2013-04-04 00:15:00,56.0,51.2,30.06,NNE,27,11.0,15.0,84,0.00,,---,0.00,VWS V14.00,2013-04-04 05:15:00,
2013-04-04 00:20:00,55.9,51.1,30.06,NNE,20,12.0,14.0,84,0.00,,---,0.00,VWS V14.00,2013-04-04 05:20:00,
2013-04-04 00:25:00,55.9,51.1,30.06,North,10,9.0,14.0,84,0.00,,---,0.00,VWS V14.00,2013-04-04 05:25:00,
2013-04-04 00:30:00,56.0,51.2,30.06,NNE,22,11.0,14.0,84,0.00,,---,0.00,VWS V14.00,2013-04-04 05:30:00,
2013-04-04 00:35:00,56.0,51.2,30.06,NE,34,12.0,16.0,84,0.00,,---,0.00,VWS V14.00,2013-04-04 05:35:00,
2013-04-04 00:40:00,56.0,51.2,30.06,North,11,9.0,15.0,84,0.00,,---,0.00,VWS V14.00,2013-04-04 05:40:00,
2013-04-04 00:45:00,55.9,51.1,30.05,North,360,9.0,16.0,84,0.00,,---,0.00,VWS V14.00,2013-04-04 05:45:00,
2013-04-04 00:50:00,55.9,51.1,30.06,NNE,14,8.0,16.0,84,0.00,,---,0.00,VWS V14.00,2013-04-04 05:50:00,
2013-04-04 00:55:00,55.9,51.1,30.06,North,5,0.0,7.0,84,0.00,,---,0.00,VWS V14.00,2013-04-04 05:55:00,
2013-04-04 01:00:00,55.9,51.1,30.06,NNE,30,0.0,6.0,84,0.00,,---,0.00,VWS V14.00,2013-04-04 06:00:00,
2013-04-04 01:05:00,55.9,51.1,30.06,North,5,2.0,5.0,84,0.00,,---,0.00,VWS V14.00,2013-04-04 06:05:00,
2013-04-04 01:10:00,55.9,51.1,30.06,NNE,29,11.0,11.0,84,0.00,,---,0.00,VWS V14.00,2013-04-04 06:10:00,
2013-04-04 01:15:00,55.9,51.1,30.05,NNE,32,9.0,10.0,84,0.00,,---,0.00,VWS V14.00,2013-04-04 06:15:00,
2013-04-04 01:20:00,55.9,51.1,30.05,North,355,5.0,10.0,84,0.00,,---,0.00,VWS V14.00,2013-04-04 06:20:00,
2013-04-04 01:25:00,56.0,51.2,30.05,NNE,22,2.0,7.0,84,0.00,,---,0.00,VWS V14.00,2013-04-04 06:25:00,
2013-04-04 01:30:00,56.0,51.2,30.05,North,5,12.0,12.0,84,0.00,,---,0.00,VWS V14.00,2013-04-04 06:30:00,
2013-04-04 01:35:00,55.9,51.1,30.05,NNE,19,8.0,10.0,84,0.00,,---,0.00,VWS V14.00,2013-04-04 06:35:00,
2013-04-04 01:40:00,55.9,51.1,30.04,NNE,12,5.0,7.0,84,0.00,,---,0.00,VWS V14.00,2013-04-04 06:40:00,
2013-04-04 01:45:00,55.9,51.1,30.04,NNE,25,4.0,7.0,84,0.00,,---,0.00,VWS V14.00,2013-04-04 06:45:00,
2013-04-04 01:50:00,55.8,51.0,30.04,NNE,15,5.0,5.0,84,0.00,,---,0.00,VWS V14.00,2013-04-04 06:50:00,
2013-04-04 01:55:00,55.8,51.0,30.04,NNE,28,8.0,12.0,84,0.00,,---,0.00,VWS V14.00,2013-04-04 06:55:00,
2013-04-04 02:00:00,55.7,51.0,30.04,NNE,19,6.0,8.0,84,0.00,,---,0.00,VWS V14.00,2013-04-04 07:00:00,
2013-04-04 02:05:00,55.7,51.0,30.03,NNE,22,9.0,10.0,84,0.00,,---,0.00,VWS V14.00,2013-04-04 07:05:00,
2013-04-04 02:10:00,55.7,51.0,30.03,NNE,28,9.0,10.0,84,0.00,,---,0.00,VWS V14.00,2013-04-04 07:10:00,
2013-04-04 02:15:00,55.7,51.0,30.03,NNE,18,4.0,10.0,84,0.00,,---,0.00,VWS V14.00,2013-04-04 07:15:00,
2013-04-04 02:20:00,55.7,51.0,30.03,NNE,28,5.0,9.0,84,0.00,,---,0.00,VWS V14.00,2013-04-04 07:20:00,
2013-04-04 02:25:00,55.7,51.0,30.03,NNE,27,6.0,7.0,84,0.00,,---,0.00,VWS V14.00,2013-04-04 07:25:00,
2013-04-04 02:30:00,55.7,51.0,30.03,NNE,24,4.0,4.0,84,0.00,,---,0.00,VWS V14.00,2013-04-04 07:30:00,
2013-04-04 02:35:00,55.7,51.0,30.03,NNE,24,0.0,0.0,84,0.00,,---,0.00,VWS V14.00,2013-04-04 07:35:00,
2013-04-04 02:40:00,55.7,51.0,30.02,NNE,22,7.0,7.0,84,0.00,,---,0.00,VWS V14.00,2013-04-04 07:40:00,
2013-04-04 02:45:00,55.7,51.0,30.02,NNE,26,2.0,3.0,84,0.00,,---,0.00,VWS V14.00,2013-04-04 07:45:00,
2013-04-04 02:50:00,55.7,51.3,30.03,NNE,26,0.0,0.0,85,0.00,,---,0.00,VWS V14.00,2013-04-04 07:50:00,
2013-04-04 02:55:00,55.7,51.3,30.03,NNE,26,0.0,0.0,85,0.00,,---,0.00,VWS V14.00,2013-04-04 07:55:00,
2013-04-04 03:00:00,55.7,51.3,30.03,NNE,26,0.0,0.0,85,0.00,,---,0.00,VWS V14.00,2013-04-04 08:00:00,
2013-04-04 03:05:00,55.7,51.3,30.03,NNE,26,0.0,0.0,85,0.00,,---,0.00,VWS V14.00,2013-04-04 08:05:00,
2013-04-04 03:10:00,55.7,51.3,30.03,NNE,26,0.0,0.0,85,0.00,,---,0.00,VWS V14.00,2013-04-04 08:10:00,
2013-04-04 03:15:00,55.7,51.3,30.03,NNE,22,0.0,0.0,85,0.00,,---,0.00,VWS V14.00,2013-04-04 08:15:00,
2013-04-04 03:20:00,55.7,51.3,30.03,North,10,0.0,0.0,85,0.00,,---,0.00,VWS V14.00,2013-04-04 08:20:00,
2013-04-04 03:25:00,55.7,51.3,30.04,North,5,0.0,0.0,85,0.00,,---,0.00,VWS V14.00,2013-04-04 08:25:00,
2013-04-04 03:30:00,55.8,51.4,30.04,North,360,0.0,0.0,85,0.00,,---,0.00,VWS V14.00,2013-04-04 08:30:00,
2013-04-04 03:35:00,55.8,51.4,30.04,North,360,0.0,0.0,85,0.00,,---,0.00,VWS V14.00,2013-04-04 08:35:00,
2013-04-04 03:40:00,55.8,51.4,30.04,North,360,0.0,0.0,85,0.00,,---,0.00,VWS V14.00,2013-04-04 08:40:00,
2013-04-04 03:45:00,55.8,51.4,30.05,North,360,0.0,0.0,85,0.00,,---,0.00,VWS V14.00,2013-04-04 08:45:00,
2013-04-04 03:50:00,55.8,51.4,30.05,North,355,0.0,0.0,85,0.00,,---,0.00,VWS V14.00,2013-04-04 08:50:00,
2013-04-04 03:55:00,55.8,51.4,30.05,North,355,0.0,0.0,85,0.00,,---,0.00,VWS V14.00,2013-04-04 08:55:00,
2013-04-04 04:00:00,55.8,51.0,30.05,NNW,346,3.0,4.0,84,0.00,,---,0.00,VWS V14.00,2013-04-04 09:00:00,
2013-04-04 04:05:00,55.8,51.0,30.05,NNW,346,0.0,0.0,84,0.00,,---,0.00,VWS V14.00,2013-04-04 09:05:00,
2013-04-04 04:10:00,55.9,51.1,30.05,NNW,346,0.0,0.0,84,0.00,,---,0.00,VWS V14.00,2013-04-04 09:10:00,
2013-04-04 04:15:00,55.9,51.1,30.06,NNW,346,0.0,0.0,84,0.00,,---,0.00,VWS V14.00,2013-04-04 09:15:00,
2013-04-04 04:20:00,56.0,51.2,30.06,NNW,346,3.0,4.0,84,0.00,,---,0.00,VWS V14.00,2013-04-04 09:20:00,
2013-04-04 04:25:00,56.0,51.2,30.05,NNW,336,5.0,5.0,84,0.00,,---,0.00,VWS V14.00,2013-04-04 09:25:00,
2013-04-04 04:30:00,55.9,51.1,30.05,NNW,336,0.0,0.0,84,0.00,,---,0.00,VWS V14.00,2013-04-04 09:30:00,
2013-04-04 04:35:00,55.9,51.1,30.04,NNW,337,4.0,4.0,84,0.00,,---,0.00,VWS V14.00,2013-04-04 09:35:00,
2013-04-04 04:40:00,55.9,51.1,30.04,NNW,337,0.0,0.0,84,0.00,,---,0.00,VWS V14.00,2013-04-04 09:40:00,
2013-04-04 04:45:00,55.9,51.1,30.04,NNW,346,0.0,0.0,84,0.00,,---,0.00,VWS V14.00,2013-04-04 09:45:00,
2013-04-04 04:50:00,55.9,51.1,30.04,NNW,344,0.0,0.0,84,0.00,,---,0.00,VWS V14.00,2013-04-04 09:50:00,
2013-04-04 04:55:00,55.9,51.1,30.05,North,350,0.0,0.0,84,0.00,,---,0.00,VWS V14.00,2013-04-04 09:55:00,
2013-04-04 05:00:00,55.9,51.1,30.05,North,350,0.0,0.0,84,0.00,,---,0.00,VWS V14.00,2013-04-04 10:00:00,
2013-04-04 05:05:00,55.8,51.0,30.05,North,350,0.0,0.0,84,0.00,,---,0.00,VWS V14.00,2013-04-04 10:05:00,
2013-04-04 05:10:00,55.8,51.0,30.05,North,350,0.0,0.0,84,0.00,,---,0.00,VWS V14.00,2013-04-04 10:10:00,
2013-04-04 05:15:00,55.8,51.0,30.05,NNW,348,3.0,3.0,84,0.00,,---,0.00,VWS V14.00,2013-04-04 10:15:00,
2013-04-04 05:20:00,55.8,51.0,30.05,NNW,348,0.0,0.0,84,0.00,,---,0.00,VWS V14.00,2013-04-04 10:20:00,
2013-04-04 05:25:00,55.8,51.0,30.05,North,349,0.0,0.0,84,0.00,,---,0.00,VWS V14.00,2013-04-04 10:25:00,
2013-04-04 05:30:00,55.7,51.0,30.06,NNW,348,3.0,4.0,84,0.00,,---,0.00,VWS V14.00,2013-04-04 10:30:00,
2013-04-04 05:35:00,55.7,51.0,30.06,NNW,348,0.0,0.0,84,0.00,,---,0.00,VWS V14.00,2013-04-04 10:35:00,
2013-04-04 05:40:00,55.7,51.0,30.06,NNW,347,0.0,0.0,84,0.00,,---,0.00,VWS V14.00,2013-04-04 10:40:00,
2013-04-04 05:45:00,55.7,51.0,30.06,NNW,339,2.0,5.0,84,0.00,,---,0.00,VWS V14.00,2013-04-04 10:45:00,
2013-04-04 05:50:00,55.6,50.8,30.06,NNW,339,0.0,0.0,84,0.00,,---,0.00,VWS V14.00,2013-04-04 10:50:00,
2013-04-04 05:55:00,55.6,50.8,30.06,NNW,339,0.0,0.0,84,0.00,,---,0.00,VWS V14.00,2013-04-04 10:55:00,
2013-04-04 06:00:00,55.5,50.8,30.06,NNW,338,4.0,4.0,84,0.00,,---,0.00,VWS V14.00,2013-04-04 11:00:00,
2013-04-04 06:05:00,55.5,50.8,30.06,NNW,338,2.0,3.0,84,0.00,,---,0.00,VWS V14.00,2013-04-04 11:05:00,
2013-04-04 06:10:00,55.5,50.8,30.06,NNW,338,0.0,0.0,84,0.00,,---,0.00,VWS V14.00,2013-04-04 11:10:00,
2013-04-04 06:15:00,55.5,50.8,30.07,NNW,338,2.0,5.0,84,0.00,,---,0.00,VWS V14.00,2013-04-04 11:15:00,
2013-04-04 06:20:00,55.4,50.7,30.07,NNW,339,0.0,5.0,84,0.00,,---,0.00,VWS V14.00,2013-04-04 11:20:00,
2013-04-04 06:25:00,55.4,50.7,30.07,NNW,344,0.0,2.0,84,0.00,,---,0.00,VWS V14.00,2013-04-04 11:25:00,
2013-04-04 06:30:00,55.4,50.7,30.07,NNW,342,0.0,0.0,84,0.00,,---,0.00,VWS V14.00,2013-04-04 11:30:00,
2013-04-04 06:35:00,55.3,50.6,30.07,NNW,342,0.0,0.0,84,0.00,,---,0.00,VWS V14.00,2013-04-04 11:35:00,
2013-04-04 06:40:00,55.3,50.6,30.07,NNW,342,0.0,0.0,84,0.00,,---,0.00,VWS V14.00,2013-04-04 11:40:00,
2013-04-04 06:45:00,55.2,50.5,30.07,NNW,343,0.0,0.0,84,0.00,,---,0.00,VWS V14.00,2013-04-04 11:45:00,
2013-04-04 06:50:00,55.1,50.4,30.08,NNW,331,0.0,0.0,84,0.00,,---,0.00,VWS V14.00,2013-04-04 11:50:00,
2013-04-04 06:56:00,55.0,50.3,30.08,NNW,331,0.0,0.0,84,0.00,,---,0.00,VWS V14.00,2013-04-04 11:56:00,
2013-04-04 07:01:00,54.9,50.2,30.08,NNW,333,4.0,6.0,84,0.00,,---,0.00,VWS V14.00,2013-04-04 12:01:00,
2013-04-04 07:05:00,54.7,50.0,30.08,NNW,335,5.0,6.0,84,0.00,,---,0.00,VWS V14.00,2013-04-04 12:05:00,
2013-04-04 07:11:00,54.6,49.9,30.09,NNW,341,2.0,5.0,84,0.00,,---,0.00,VWS V14.00,2013-04-04 12:11:00,
2013-04-04 07:16:00,54.5,49.8,30.08,NNW,340,0.0,0.0,84,0.00,,---,0.00,VWS V14.00,2013-04-04 12:16:00,
2013-04-04 07:21:00,54.3,49.6,30.08,NNW,336,0.0,0.0,84,0.00,,---,0.00,VWS V14.00,2013-04-04 12:21:00,
2013-04-04 07:26:00,54.2,49.5,30.09,NNW,331,0.0,0.0,84,0.00,,---,0.00,VWS V14.00,2013-04-04 12:26:00,
2013-04-04 07:31:00,54.2,49.8,30.09,NNW,331,0.0,0.0,85,0.00,,---,0.00,VWS V14.00,2013-04-04 12:31:00,
2013-04-04 07:36:00,54.2,49.8,30.09,NNW,331,4.0,4.0,85,0.00,,---,0.00,VWS V14.00,2013-04-04 12:36:00,
2013-04-04 07:41:00,54.2,49.8,30.09,NNW,330,0.0,1.0,85,0.00,,---,0.00,VWS V14.00,2013-04-04 12:41:00,
2013-04-04 07:46:00,54.2,49.8,30.09,NNW,333,6.0,6.0,85,0.00,,---,0.00,VWS V14.00,2013-04-04 12:46:00,
2013-04-04 07:51:00,54.2,49.8,30.10,NNW,333,3.0,3.0,85,0.00,,---,0.00,VWS V14.00,2013-04-04 12:51:00,
2013-04-04 07:56:00,54.2,49.8,30.10,NNW,333,0.0,0.0,85,0.00,,---,0.00,VWS V14.00,2013-04-04 12:56:00,
2013-04-04 08:01:00,54.2,49.8,30.10,NNW,333,0.0,0.0,85,0.00,,---,0.00,VWS V14.00,2013-04-04 13:01:00,
2013-04-04 08:06:00,54.3,49.6,30.10,NNW,334,0.0,0.0,84,0.00,,---,0.00,VWS V14.00,2013-04-04 13:06:00,
2013-04-04 08:11:00,54.4,49.7,30.10,NNW,333,0.0,0.0,84,0.00,,---,0.00,VWS V14.00,2013-04-04 13:11:00,
2013-04-04 08:16:00,54.4,49.7,30.10,NNW,333,3.0,3.0,84,0.00,,---,0.00,VWS V14.00,2013-04-04 13:16:00,
2013-04-04 08:21:00,54.5,49.8,30.11,NNW,334,3.0,4.0,84,0.00,,---,0.00,VWS V14.00,2013-04-04 13:21:00,
2013-04-04 08:26:00,54.5,49.5,30.11,NNW,338,3.0,5.0,83,0.00,,---,0.00,VWS V14.00,2013-04-04 13:26:00,
2013-04-04 08:31:00,54.5,49.5,30.11,NNW,336,6.0,6.0,83,0.00,,---,0.00,VWS V14.00,2013-04-04 13:31:00,
2013-04-04 08:36:00,54.6,49.5,30.11,NNW,336,3.0,6.0,83,0.00,,---,0.00,VWS V14.00,2013-04-04 13:36:00,
2013-04-04 08:41:00,54.6,49.2,30.11,NNW,333,4.0,7.0,82,0.00,,---,0.00,VWS V14.00,2013-04-04 13:41:00,
2013-04-04 08:46:00,54.8,49.4,30.11,NNW,333,3.0,4.0,82,0.00,,---,0.00,VWS V14.00,2013-04-04 13:46:00,
2013-04-04 08:51:00,54.9,49.5,30.11,NNW,335,2.0,6.0,82,0.00,,---,0.00,VWS V14.00,2013-04-04 13:51:00,
2013-04-04 08:56:00,55.0,49.3,30.11,NNW,338,5.0,5.0,81,0.00,,---,0.00,VWS V14.00,2013-04-04 13:56:00,
2013-04-04 09:01:00,55.1,49.4,30.12,NNW,339,3.0,4.0,81,0.00,,---,0.00,VWS V14.00,2013-04-04 14:01:00,
2013-04-04 09:06:00,55.1,49.4,30.12,NNW,339,0.0,0.0,81,0.00,,---,0.00,VWS V14.00,2013-04-04 14:06:00,
2013-04-04 09:11:00,55.2,49.2,30.12,NNW,337,0.0,4.0,80,0.00,,---,0.00,VWS V14.00,2013-04-04 14:11:00,
2013-04-04 09:16:00,55.4,49.3,30.12,NNW,340,3.0,6.0,80,0.00,,---,0.00,VWS V14.00,2013-04-04 14:16:00,
2013-04-04 09:21:00,55.5,49.4,30.12,NNW,340,0.0,5.0,80,0.00,,---,0.00,VWS V14.00,2013-04-04 14:21:00,
2013-04-04 09:26:00,55.6,49.2,30.12,NNW,340,5.0,5.0,79,0.00,,---,0.00,VWS V14.00,2013-04-04 14:26:00,
2013-04-04 09:31:00,55.7,49.3,30.12,NNW,343,0.0,6.0,79,0.00,,---,0.00,VWS V14.00,2013-04-04 14:31:00,
2013-04-04 09:36:00,55.9,49.5,30.12,NNW,345,3.0,3.0,79,0.00,,---,0.00,VWS V14.00,2013-04-04 14:36:00,
2013-04-04 09:41:00,56.0,49.6,30.12,North,5,5.0,7.0,79,0.00,,---,0.00,VWS V14.00,2013-04-04 14:41:00,
2013-04-04 09:46:00,56.0,49.2,30.12,NNE,27,2.0,4.0,78,0.00,,---,0.00,VWS V14.00,2013-04-04 14:46:00,
2013-04-04 09:51:00,56.2,49.4,30.12,NNW,343,0.0,0.0,78,0.00,,---,0.00,VWS V14.00,2013-04-04 14:51:00,
2013-04-04 09:56:00,56.3,49.5,30.12,NNW,344,0.0,0.0,78,0.00,,---,0.00,VWS V14.00,2013-04-04 14:56:00,
2013-04-04 10:01:00,56.3,49.5,30.13,NNW,343,0.0,0.0,78,0.00,,---,0.00,VWS V14.00,2013-04-04 15:01:00,
2013-04-04 10:06:00,56.3,49.5,30.12,NNW,342,4.0,6.0,78,0.00,,---,0.00,VWS V14.00,2013-04-04 15:06:00,
2013-04-04 10:11:00,56.4,49.3,30.12,NNW,346,0.0,7.0,77,0.00,,---,0.00,VWS V14.00,2013-04-04 15:11:00,
2013-04-04 10:16:00,56.6,49.5,30.12,NW,317,0.0,0.0,77,0.00,,---,0.00,VWS V14.00,2013-04-04 15:16:00,
2013-04-04 10:22:00,57.0,49.5,30.12,NNW,342,0.0,5.0,76,0.00,,---,0.00,VWS V14.00,2013-04-04 15:22:00,
2013-04-04 10:27:00,57.5,50.0,30.12,NNW,344,3.0,5.0,76,0.00,,---,0.00,VWS V14.00,2013-04-04 15:27:00,
2013-04-04 10:32:00,57.9,49.7,30.12,NNW,340,0.0,4.0,74,0.00,,---,0.00,VWS V14.00,2013-04-04 15:32:00,
2013-04-04 10:37:00,58.1,49.5,30.12,NNW,336,0.0,0.0,73,0.00,,---,0.00,VWS V14.00,2013-04-04 15:37:00,
2013-04-04 10:42:00,58.5,49.9,30.12,NNW,336,0.0,0.0,73,0.00,,---,0.00,VWS V14.00,2013-04-04 15:42:00,
2013-04-04 10:47:00,58.9,49.9,30.12,NNW,337,3.0,8.0,72,0.00,,---,0.00,VWS V14.00,2013-04-04 15:47:00,
2013-04-04 10:52:00,59.1,50.1,30.12,NW,314,2.0,2.0,72,0.00,,---,0.00,VWS V14.00,2013-04-04 15:52:00,
2013-04-04 10:57:00,59.6,50.6,30.12,NW,320,0.0,5.0,72,0.00,,---,0.00,VWS V14.00,2013-04-04 15:57:00,
2013-04-04 11:02:00,60.2,50.8,30.12,NNW,330,0.0,0.0,71,0.00,,---,0.00,VWS V14.00,2013-04-04 16:02:00,
2013-04-04 11:07:00,60.6,50.8,30.13,NNW,345,2.0,8.0,70,0.00,,---,0.00,VWS V14.00,2013-04-04 16:07:00,
2013-04-04 11:12:00,60.7,50.9,30.12,NNW,339,0.0,4.0,70,0.00,,---,0.00,VWS V14.00,2013-04-04 16:12:00,
2013-04-04 11:17:00,61.3,51.5,30.13,NNW,332,0.0,3.0,70,0.00,,---,0.00,VWS V14.00,2013-04-04 16:17:00,
2013-04-04 11:22:00,61.9,51.6,30.13,NNW,340,0.0,3.0,69,0.00,,---,0.00,VWS V14.00,2013-04-04 16:22:00,
2013-04-04 11:27:00,62.2,51.9,30.13,NNW,338,7.0,7.0,69,0.00,,---,0.00,VWS V14.00,2013-04-04 16:27:00,
2013-04-04 11:32:00,62.8,52.5,30.13,North,351,5.0,9.0,69,0.00,,---,0.00,VWS V14.00,2013-04-04 16:32:00,
2013-04-04 11:37:00,63.2,51.7,30.13,NNW,331,8.0,8.0,66,0.00,,---,0.00,VWS V14.00,2013-04-04 16:37:00,
2013-04-04 11:42:00,63.8,52.7,30.13,NNW,334,4.0,10.0,67,0.00,,---,0.00,VWS V14.00,2013-04-04 16:42:00,
2013-04-04 11:47:00,64.0,52.0,30.13,NNW,339,1.0,6.0,65,0.00,,---,0.00,VWS V14.00,2013-04-04 16:47:00,
2013-04-04 11:52:00,64.4,51.5,30.12,NNW,334,0.0,4.0,63,0.00,,---,0.00,VWS V14.00,2013-04-04 16:52:00,
2013-04-04 11:57:00,64.9,51.6,30.12,NNW,336,0.0,6.0,62,0.00,,---,0.00,VWS V14.00,2013-04-04 16:57:00,
2013-04-04 12:02:00,65.4,51.6,30.12,NNW,342,0.0,11.0,61,0.00,,---,0.00,VWS V14.00,2013-04-04 17:02:00,
2013-04-04 12:07:00,66.3,51.6,30.12,NNW,347,0.0,0.0,59,0.00,,---,0.00,VWS V14.00,2013-04-04 17:07:00,
2013-04-04 12:12:00,66.6,51.4,30.12,NNW,339,7.0,8.0,58,0.00,,---,0.00,VWS V14.00,2013-04-04 17:12:00,
2013-04-04 12:17:00,67.0,51.8,30.11,NNW,338,6.0,11.0,58,0.00,,---,0.00,VWS V14.00,2013-04-04 17:17:00,
2013-04-04 12:22:00,67.4,51.2,30.11,NNW,342,8.0,8.0,56,0.00,,---,0.00,VWS V14.00,2013-04-04 17:22:00,
2013-04-04 12:27:00,67.6,51.4,30.11,NNW,342,0.0,0.0,56,0.00,,---,0.00,VWS V14.00,2013-04-04 17:27:00,
2013-04-04 12:32:00,68.0,51.2,30.10,NNW,342,1.0,1.0,55,0.00,,---,0.00,VWS V14.00,2013-04-04 17:32:00,
2013-04-04 12:37:00,68.2,50.9,30.10,NNW,344,0.0,0.0,54,0.00,,---,0.00,VWS V14.00,2013-04-04 17:37:00,
2013-04-04 12:42:00,68.6,51.3,30.10,NNW,346,0.0,0.0,54,0.00,,---,0.00,VWS V14.00,2013-04-04 17:42:00,
2013-04-04 12:47:00,69.2,50.8,30.10,NNW,334,5.0,12.0,52,0.00,,---,0.00,VWS V14.00,2013-04-04 17:47:00,
2013-04-04 12:52:00,69.5,50.1,30.09,NNW,339,3.0,6.0,50,0.00,,---,0.00,VWS V14.00,2013-04-04 17:52:00,
2013-04-04 12:57:00,70.1,50.6,30.09,NNW,344,0.0,2.0,50,0.00,,---,0.00,VWS V14.00,2013-04-04 17:57:00,
2013-04-04 13:02:00,70.8,50.7,30.09,NNE,19,8.0,8.0,49,0.00,,---,0.00,VWS V14.00,2013-04-04 18:02:00,
2013-04-04 13:07:00,71.1,50.4,30.08,NNW,338,0.0,0.0,48,0.00,,---,0.00,VWS V14.00,2013-04-04 18:07:00,
2013-04-04 13:12:00,71.6,50.9,30.08,NNW,329,2.0,8.0,48,0.00,,---,0.00,VWS V14.00,2013-04-04 18:12:00,
2013-04-04 13:17:00,72.3,50.4,30.08,NNW,332,5.0,5.0,46,0.00,,---,0.00,VWS V14.00,2013-04-04 18:17:00,
2013-04-04 13:22:00,72.1,49.6,30.08,NNW,340,1.0,10.0,45,0.00,,---,0.00,VWS V14.00,2013-04-04 18:22:00,
2013-04-04 13:27:00,71.9,50.6,30.07,NNW,343,0.0,4.0,47,0.00,,---,0.00,VWS V14.00,2013-04-04 18:27:00,
2013-04-04 13:32:00,72.1,50.2,30.07,North,5,5.0,11.0,46,0.00,,---,0.00,VWS V14.00,2013-04-04 18:32:00,
2013-04-04 13:37:00,72.4,49.9,30.07,North,351,1.0,5.0,45,0.00,,---,0.00,VWS V14.00,2013-04-04 18:37:00,
2013-04-04 13:43:00,72.5,50.0,30.07,NNW,345,4.0,4.0,45,0.00,,---,0.00,VWS V14.00,2013-04-04 18:43:00,
2013-04-04 13:47:00,72.3,49.8,30.06,NNW,341,10.0,11.0,45,0.00,,---,0.00,VWS V14.00,2013-04-04 18:47:00,
2013-04-04 13:52:00,73.1,49.9,30.06,NNW,343,11.0,11.0,44,0.00,,---,0.00,VWS V14.00,2013-04-04 18:52:00,
2013-04-04 13:57:00,73.5,49.7,30.06,NNW,332,7.0,7.0,43,0.00,,---,0.00,VWS V14.00,2013-04-04 18:57:00,
2013-04-04 14:02:00,73.7,49.8,30.05,NNW,346,6.0,8.0,43,0.00,,---,0.00,VWS V14.00,2013-04-04 19:02:00,
2013-04-04 14:07:00,74.4,49.2,30.05,NNW,338,5.0,6.0,41,0.00,,---,0.00,VWS V14.00,2013-04-04 19:07:00,
2013-04-04 14:12:00,74.8,48.9,30.05,NNW,328,0.0,3.0,40,0.00,,---,0.00,VWS V14.00,2013-04-04 19:12:00,
2013-04-04 14:17:00,74.9,49.0,30.05,NNW,335,0.0,3.0,40,0.00,,---,0.00,VWS V14.00,2013-04-04 19:17:00,
2013-04-04 14:22:00,74.8,48.9,30.04,North,360,0.0,0.0,40,0.00,,---,0.00,VWS V14.00,2013-04-04 19:22:00,
2013-04-04 14:27:00,75.2,49.2,30.04,North,360,3.0,7.0,40,0.00,,---,0.00,VWS V14.00,2013-04-04 19:27:00,
2013-04-04 14:32:00,75.5,48.8,30.04,North,350,4.0,9.0,39,0.00,,---,0.00,VWS V14.00,2013-04-04 19:32:00,
2013-04-04 14:37:00,75.7,49.0,30.04,NNW,343,8.0,9.0,39,0.00,,---,0.00,VWS V14.00,2013-04-04 19:37:00,
2013-04-04 14:42:00,75.4,48.8,30.04,NNW,344,4.0,8.0,39,0.00,,---,0.00,VWS V14.00,2013-04-04 19:42:00,
2013-04-04 14:47:00,75.5,48.8,30.03,NNW,335,0.0,0.0,39,0.00,,---,0.00,VWS V14.00,2013-04-04 19:47:00,
2013-04-04 14:53:00,76.1,48.7,30.03,NNE,19,3.0,4.0,38,0.00,,---,0.00,VWS V14.00,2013-04-04 19:53:00,
2013-04-04 14:58:00,76.0,49.3,30.03,North,350,3.0,6.0,39,0.00,,---,0.00,VWS V14.00,2013-04-04 19:58:00,
2013-04-04 15:03:00,76.1,48.0,30.03,North,11,5.0,11.0,37,0.00,,---,0.00,VWS V14.00,2013-04-04 20:03:00,
2013-04-04 15:08:00,76.1,48.7,30.03,North,350,7.0,11.0,38,0.00,,---,0.00,VWS V14.00,2013-04-04 20:08:00,
2013-04-04 15:13:00,76.5,48.3,30.03,NNW,346,0.0,7.0,37,0.00,,---,0.00,VWS V14.00,2013-04-04 20:13:00,
2013-04-04 15:18:00,77.0,47.3,30.02,NNW,342,7.0,8.0,35,0.00,,---,0.00,VWS V14.00,2013-04-04 20:18:00,
2013-04-04 15:23:00,76.9,47.2,30.02,North,350,7.0,8.0,35,0.00,,---,0.00,VWS V14.00,2013-04-04 20:23:00,
2013-04-04 15:28:00,76.8,47.8,30.02,North,350,0.0,7.0,36,0.00,,---,0.00,VWS V14.00,2013-04-04 20:28:00,
2013-04-04 15:33:00,77.1,48.1,30.02,NNW,343,7.0,7.0,36,0.00,,---,0.00,VWS V14.00,2013-04-04 20:33:00,
2013-04-04 15:38:00,77.2,48.2,30.02,NNW,333,4.0,5.0,36,0.00,,---,0.00,VWS V14.00,2013-04-04 20:38:00,
2013-04-04 15:42:00,77.3,47.5,30.02,NNW,332,9.0,9.0,35,0.00,,---,0.00,VWS V14.00,2013-04-04 20:42:00,
2013-04-04 15:47:00,77.1,48.1,30.01,North,5,0.0,2.0,36,0.00,,---,0.00,VWS V14.00,2013-04-04 20:47:00,
2013-04-04 15:52:00,77.0,48.0,30.01,North,5,4.0,4.0,36,0.00,,---,0.00,VWS V14.00,2013-04-04 20:52:00,
2013-04-04 15:58:00,77.1,48.1,30.01,North,355,5.0,7.0,36,0.00,,---,0.00,VWS V14.00,2013-04-04 20:58:00,
2013-04-04 16:03:00,77.0,47.3,30.01,WNW,303,11.0,15.0,35,0.00,,---,0.00,VWS V14.00,2013-04-04 21:03:00,
2013-04-04 16:08:00,76.8,47.8,30.01,NNW,344,0.0,3.0,36,0.00,,---,0.00,VWS V14.00,2013-04-04 21:08:00,
2013-04-04 16:13:00,76.9,47.9,30.01,North,349,5.0,6.0,36,0.00,,---,0.00,VWS V14.00,2013-04-04 21:13:00,
2013-04-04 16:18:00,76.9,47.2,30.01,North,11,0.0,9.0,35,0.00,,---,0.00,VWS V14.00,2013-04-04 21:18:00,
2013-04-04 16:23:00,76.8,47.8,30.01,North,355,4.0,4.0,36,0.00,,---,0.00,VWS V14.00,2013-04-04 21:23:00,
2013-04-04 16:28:00,76.8,47.8,30.01,North,5,0.0,6.0,36,0.00,,---,0.00,VWS V14.00,2013-04-04 21:28:00,
2013-04-04 16:33:00,77.0,48.8,30.00,North,5,1.0,3.0,37,0.00,,---,0.00,VWS V14.00,2013-04-04 21:33:00,
2013-04-04 16:38:00,77.4,47.6,30.00,North,355,1.0,10.0,35,0.00,,---,0.00,VWS V14.00,2013-04-04 21:38:00,
2013-04-04 16:43:00,77.0,48.0,30.00,North,351,3.0,8.0,36,0.00,,---,0.00,VWS V14.00,2013-04-04 21:43:00,
2013-04-04 16:48:00,76.9,47.9,30.00,North,355,3.0,5.0,36,0.00,,---,0.00,VWS V14.00,2013-04-04 21:48:00,
2013-04-04 16:53:00,77.0,48.0,30.00,North,355,3.0,3.0,36,0.00,,---,0.00,VWS V14.00,2013-04-04 21:53:00,
2013-04-04 16:58:00,77.7,47.9,30.00,North,355,3.0,6.0,35,0.00,,---,0.00,VWS V14.00,2013-04-04 21:58:00,
2013-04-04 17:03:00,77.3,47.5,30.00,NNE,15,3.0,6.0,35,0.00,,---,0.00,VWS V14.00,2013-04-04 22:03:00,
2013-04-04 17:08:00,77.3,47.5,30.00,North,355,6.0,8.0,35,0.00,,---,0.00,VWS V14.00,2013-04-04 22:08:00,
2013-04-04 17:13:00,77.3,47.5,30.00,North,350,5.0,5.0,35,0.00,,---,0.00,VWS V14.00,2013-04-04 22:13:00,
2013-04-04 17:18:00,77.3,47.5,30.00,NNW,340,0.0,5.0,35,0.00,,---,0.00,VWS V14.00,2013-04-04 22:18:00,
2013-04-04 17:23:00,77.1,47.4,30.00,NNW,340,2.0,7.0,35,0.00,,---,0.00,VWS V14.00,2013-04-04 22:23:00,
2013-04-04 17:28:00,76.8,47.1,30.00,NNE,18,4.0,6.0,35,0.00,,---,0.00,VWS V14.00,2013-04-04 22:28:00,
2013-04-04 17:33:00,76.8,47.1,29.99,NNE,15,4.0,5.0,35,0.00,,---,0.00,VWS V14.00,2013-04-04 22:33:00,
2013-04-04 17:38:00,76.5,47.6,30.00,North,5,5.0,7.0,36,0.00,,---,0.00,VWS V14.00,2013-04-04 22:38:00,
2013-04-04 17:43:00,76.5,47.6,30.00,North,360,3.0,6.0,36,0.00,,---,0.00,VWS V14.00,2013-04-04 22:43:00,
2013-04-04 17:48:00,76.4,47.5,30.00,NNW,338,3.0,10.0,36,0.00,,---,0.00,VWS V14.00,2013-04-04 22:48:00,
2013-04-04 17:53:00,76.3,47.4,30.00,NNW,342,2.0,4.0,36,0.00,,---,0.00,VWS V14.00,2013-04-04 22:53:00,
2013-04-04 17:58:00,76.3,47.4,30.00,NNW,333,6.0,12.0,36,0.00,,---,0.00,VWS V14.00,2013-04-04 22:58:00,
2013-04-04 18:03:00,76.2,47.3,30.00,NNW,338,0.0,7.0,36,0.00,,---,0.00,VWS V14.00,2013-04-04 23:03:00,
2013-04-04 18:08:00,75.9,47.1,30.00,North,355,1.0,8.0,36,0.00,,---,0.00,VWS V14.00,2013-04-04 23:08:00,
2013-04-04 18:13:00,75.6,47.5,30.00,North,5,0.0,9.0,37,0.00,,---,0.00,VWS V14.00,2013-04-04 23:13:00,
2013-04-04 18:18:00,75.6,46.8,30.00,North,360,0.0,5.0,36,0.00,,---,0.00,VWS V14.00,2013-04-04 23:18:00,
2013-04-04 18:23:00,75.6,46.8,30.00,North,360,0.0,0.0,36,0.00,,---,0.00,VWS V14.00,2013-04-04 23:23:00,
2013-04-04 18:28:00,75.7,46.9,30.00,NNE,13,1.0,6.0,36,0.00,,---,0.00,VWS V14.00,2013-04-04 23:28:00,
2013-04-04 18:33:00,75.5,46.7,30.00,NNE,13,2.0,7.0,36,0.00,,---,0.00,VWS V14.00,2013-04-04 23:33:00,
2013-04-04 18:38:00,75.2,47.2,30.00,NNE,12,3.0,5.0,37,0.00,,---,0.00,VWS V14.00,2013-04-04 23:38:00,
2013-04-04 18:43:00,75.0,47.0,30.00,NNE,13,0.0,6.0,37,0.00,,---,0.00,VWS V14.00,2013-04-04 23:43:00,
2013-04-04 18:48:00,74.7,46.7,30.00,NNE,22,0.0,2.0,37,0.00,,---,0.00,VWS V14.00,2013-04-04 23:48:00,
2013-04-04 18:53:00,74.2,47.0,30.01,NNE,22,3.0,7.0,38,0.00,,---,0.00,VWS V14.00,2013-04-04 23:53:00,
2013-04-04 18:58:00,73.7,46.5,30.00,NNE,17,0.0,5.0,38,0.00,,---,0.00,VWS V14.00,2013-04-04 23:58:00,
2013-04-04 19:03:00,73.3,46.2,30.00,NNE,15,0.0,4.0,38,0.00,,---,0.00,VWS V14.00,2013-04-05 00:03:00,
2013-04-04 19:08:00,73.0,46.6,30.01,NNE,15,0.0,0.0,39,0.00,,---,0.00,VWS V14.00,2013-04-05 00:08:00,
2013-04-04 19:13:00,72.7,46.3,30.00,NNE,15,0.0,0.0,39,0.00,,---,0.00,VWS V14.00,2013-04-05 00:13:00,
2013-04-04 19:18:00,72.4,46.7,30.01,NNE,12,7.0,9.0,40,0.00,,---,0.00,VWS V14.00,2013-04-05 00:18:00,
2013-04-04 19:23:00,71.9,46.3,30.01,North,10,2.0,9.0,40,0.00,,---,0.00,VWS V14.00,2013-04-05 00:23:00,
2013-04-04 19:28:00,71.5,46.6,30.01,NNE,29,0.0,9.0,41,0.00,,---,0.00,VWS V14.00,2013-04-05 00:28:00,
2013-04-04 19:33:00,71.1,46.2,30.01,NNE,29,4.0,6.0,41,0.00,,---,0.00,VWS V14.00,2013-04-05 00:33:00,
2013-04-04 19:38:00,70.8,46.6,30.01,NNE,29,0.0,4.0,42,0.00,,---,0.00,VWS V14.00,2013-04-05 00:38:00,
2013-04-04 19:43:00,70.4,46.2,30.01,NNE,29,6.0,8.0,42,0.00,,---,0.00,VWS V14.00,2013-04-05 00:43:00,
2013-04-04 19:48:00,70.0,45.9,30.01,NNE,29,7.0,8.0,42,0.00,,---,0.00,VWS V14.00,2013-04-05 00:48:00,
2013-04-04 19:53:00,69.6,45.5,30.02,NNE,29,7.0,10.0,42,0.00,,---,0.00,VWS V14.00,2013-04-05 00:53:00,
2013-04-04 19:58:00,69.2,45.8,30.02,NNE,28,8.0,11.0,43,0.00,,---,0.00,VWS V14.00,2013-04-05 00:58:00,
2013-04-04 20:03:00,68.8,45.4,30.02,NNE,28,9.0,10.0,43,0.00,,---,0.00,VWS V14.00,2013-04-05 01:03:00,
2013-04-04 20:08:00,68.4,45.0,30.02,NNE,28,10.0,11.0,43,0.00,,---,0.00,VWS V14.00,2013-04-05 01:08:00,
2013-04-04 20:13:00,68.1,45.4,30.03,NNE,33,11.0,12.0,44,0.00,,---,0.00,VWS V14.00,2013-04-05 01:13:00,
2013-04-04 20:18:00,67.5,44.8,30.03,NE,36,13.0,13.0,44,0.00,,---,0.00,VWS V14.00,2013-04-05 01:18:00,
2013-04-04 20:23:00,67.1,45.1,30.03,NE,36,8.0,13.0,45,0.00,,---,0.00,VWS V14.00,2013-04-05 01:23:00,
2013-04-04 20:28:00,66.7,44.7,30.03,NE,36,11.0,11.0,45,0.00,,---,0.00,VWS V14.00,2013-04-05 01:28:00,
2013-04-04 20:33:00,66.3,44.3,30.03,NE,36,7.0,9.0,45,0.00,,---,0.00,VWS V14.00,2013-04-05 01:33:00,
2013-04-04 20:38:00,65.9,44.0,30.03,NE,36,8.0,9.0,45,0.00,,---,0.00,VWS V14.00,2013-04-05 01:38:00,
2013-04-04 20:43:00,65.4,44.1,30.04,NE,36,7.0,9.0,46,0.00,,---,0.00,VWS V14.00,2013-04-05 01:43:00,
2013-04-04 20:48:00,64.9,43.7,30.04,NE,36,7.0,8.0,46,0.00,,---,0.00,VWS V14.00,2013-04-05 01:48:00,
2013-04-04 20:53:00,64.5,43.8,30.04,NE,36,9.0,11.0,47,0.00,,---,0.00,VWS V14.00,2013-04-05 01:53:00,
2013-04-04 20:58:00,64.2,44.1,30.04,NE,36,10.0,13.0,48,0.00,,---,0.00,VWS V14.00,2013-04-05 01:58:00,
2013-04-04 21:03:00,64.0,43.9,30.05,NE,36,14.0,14.0,48,0.00,,---,0.00,VWS V14.00,2013-04-05 02:03:00,
2013-04-04 21:08:00,63.9,44.4,30.05,NE,40,11.0,16.0,49,0.00,,---,0.00,VWS V14.00,2013-04-05 02:08:00,
2013-04-04 21:13:00,63.6,44.6,30.05,NE,36,12.0,14.0,50,0.00,,---,0.00,VWS V14.00,2013-04-05 02:13:00,
2013-04-04 21:18:00,63.2,44.3,30.05,NE,38,11.0,14.0,50,0.00,,---,0.00,VWS V14.00,2013-04-05 02:18:00,
2013-04-04 21:23:00,62.9,44.5,30.05,NE,40,11.0,14.0,51,0.00,,---,0.00,VWS V14.00,2013-04-05 02:23:00,
2013-04-04 21:28:00,62.6,44.2,30.06,NE,40,11.0,13.0,51,0.00,,---,0.00,VWS V14.00,2013-04-05 02:28:00,
2013-04-04 21:33:00,62.3,44.5,30.06,NE,40,11.0,16.0,52,0.00,,---,0.00,VWS V14.00,2013-04-05 02:33:00,
2013-04-04 21:38:00,62.1,44.3,30.06,NE,43,13.0,13.0,52,0.00,,---,0.00,VWS V14.00,2013-04-05 02:38:00,
2013-04-04 21:43:00,61.7,44.4,30.06,NE,42,14.0,19.0,53,0.00,,---,0.00,VWS V14.00,2013-04-05 02:43:00,
2013-04-04 21:48:00,61.6,44.8,30.06,NE,40,12.0,18.0,54,0.00,,---,0.00,VWS V14.00,2013-04-05 02:48:00,
2013-04-04 21:53:00,61.4,44.6,30.07,NE,44,16.0,20.0,54,0.00,,---,0.00,VWS V14.00,2013-04-05 02:53:00,
2013-04-04 21:58:00,61.2,44.4,30.07,NE,42,12.0,16.0,54,0.00,,---,0.00,VWS V14.00,2013-04-05 02:58:00,
2013-04-04 22:03:00,60.8,44.5,30.07,NE,44,13.0,14.0,55,0.00,,---,0.00,VWS V14.00,2013-04-05 03:03:00,
2013-04-04 22:08:00,60.4,44.2,30.08,NE,44,9.0,12.0,55,0.00,,---,0.00,VWS V14.00,2013-04-05 03:08:00,
2013-04-04 22:13:00,60.0,44.3,30.08,NE,44,9.0,12.0,56,0.00,,---,0.00,VWS V14.00,2013-04-05 03:13:00,
2013-04-04 22:18:00,60.0,44.3,30.08,NE,44,13.0,15.0,56,0.00,,---,0.00,VWS V14.00,2013-04-05 03:18:00,
2013-04-04 22:23:00,59.8,44.1,30.08,NE,46,11.0,14.0,56,0.00,,---,0.00,VWS V14.00,2013-04-05 03:23:00,
2013-04-04 22:28:00,59.5,44.3,30.08,NE,47,14.0,14.0,57,0.00,,---,0.00,VWS V14.00,2013-04-05 03:28:00,
2013-04-04 22:33:00,59.3,44.1,30.09,NE,49,8.0,11.0,57,0.00,,---,0.00,VWS V14.00,2013-04-05 03:33:00,
2013-04-04 22:38:00,58.8,44.5,30.09,NE,55,14.0,18.0,59,0.00,,---,0.00,VWS V14.00,2013-04-05 03:38:00,
2013-04-04 22:43:00,58.5,44.7,30.09,NE,52,15.0,17.0,60,0.00,,---,0.00,VWS V14.00,2013-04-05 03:43:00,
2013-04-04 22:48:00,58.3,44.9,30.09,NE,53,13.0,18.0,61,0.00,,---,0.00,VWS V14.00,2013-04-05 03:48:00,
2013-04-04 22:53:00,57.9,44.5,30.09,NE,53,13.0,15.0,61,0.00,,---,0.00,VWS V14.00,2013-04-05 03:53:00,
2013-04-04 22:58:00,57.6,44.7,30.10,NE,55,16.0,16.0,62,0.00,,---,0.00,VWS V14.00,2013-04-05 03:58:00,
2013-04-04 23:00:00,57.5,44.6,30.10,NE,53,15.0,17.0,62,0.00,,---,0.00,VWS V14.00,2013-04-05 04:00:00,
2013-04-04 23:05:00,57.2,44.7,30.10,NE,53,16.0,19.0,63,0.00,,---,0.00,VWS V14.00,2013-04-05 04:05:00,
2013-04-04 23:10:00,57.0,45.0,30.10,NE,52,17.0,17.0,64,0.00,,---,0.00,VWS V14.00,2013-04-05 04:10:00,
2013-04-04 23:15:00,56.7,44.7,30.10,NE,49,18.0,19.0,64,0.00,,---,0.00,VWS V14.00,2013-04-05 04:15:00,
2013-04-04 23:20:00,56.6,45.0,30.10,NE,47,17.0,17.0,65,0.00,,---,0.00,VWS V14.00,2013-04-05 04:20:00,
2013-04-04 23:25:00,56.4,44.8,30.10,NE,48,20.0,20.0,65,0.00,,---,0.00,VWS V14.00,2013-04-05 04:25:00,
2013-04-04 23:30:00,56.2,45.0,30.10,NE,50,15.0,16.0,66,0.00,,---,0.00,VWS V14.00,2013-04-05 04:30:00,
2013-04-04 23:35:00,56.0,44.8,30.10,NE,46,17.0,19.0,66,0.00,,---,0.00,VWS V14.00,2013-04-05 04:35:00,
2013-04-04 23:40:00,55.8,44.6,30.11,NE,47,15.0,17.0,66,0.00,,---,0.00,VWS V14.00,2013-04-05 04:40:00,
2013-04-04 23:45:00,55.6,44.8,30.11,NE,46,12.0,13.0,67,0.00,,---,0.00,VWS V14.00,2013-04-05 04:45:00,
2013-04-04 23:50:00,55.4,44.6,30.11,NE,46,16.0,16.0,67,0.00,,---,0.00,VWS V14.00,2013-04-05 04:50:00,
2013-04-04 23:55:00,55.3,44.9,30.11,NE,50,15.0,15.0,68,0.00,,---,0.00,VWS V14.00,2013-04-05 04:55:00,